Guadalupe Mtns National Park, TX

11:34 PM MDT die 26o April, anno 2015 (GMT -0600)
APRSWXNET | | Change Station
CLOSE
Current Station
Personal Weather Stations
Location: Salt Flat, TX
Elevation: 3694 ft
Nearby Weather Stations

Elev 3694 ft 31.73 °N, 104.93 °W | Updated 31 minutes ago

Serena
Serena
52 °F
Feels Like 52 °F
N
2
Ventus Variabilis Ventus from Zephyrus
Gusts 5.0 mph

Hodie
High -- | Low -- °F
--% Chance of Precip.
Yesterday
High -- | Low -- °F
Precip. -- in
6:19 AM 7:36 PM
First Quarter, 62% visible
Pressio 29.68 in
Visibilitas 10.0 milia passuum
Clouds Serena
Frigus in quo Ros apparet 35 °F
Umor 52%
Rainfall in
Snow Depth Not available.
UV 0 out of 12
Pollen 8.60 out of 12
Air Quality Not available.
Flu Activity Local Activity
METAR KGDP 270451Z AUTO 25025KT 10SM CLR 09/00 A2984 RMK AO2 PK WND 25045/0407 SLP051 T00890000

More Conditions Fewer Conditions

Pressio 29.68 in
Visibilitas 10.0 milia passuum
Clouds Serena
Frigus in quo Ros apparet 35 °F
Umor 52%
Rainfall in
Snow Depth Not available.
UV 0 out of 12
Pollen 8.60 out of 12
Air Quality Not available.
Flu Activity Local Activity
METAR KGDP 270451Z AUTO 25025KT 10SM CLR 09/00 A2984 RMK AO2 PK WND 25045/0407 SLP051 T00890000

More Conditions Fewer Conditions

The full scope of the disaster following a powerful 7.8-magnitude earthquake in Nepal may not come into view for days, but global charities are already sending emergency aid. Click to see how you can help.

10-Day Weather Forecast

Almanac

Astronomy

Apr. 26, 2015 Rise Set
Actual Time
Civil Twilight
Nautical Twilight
Astronomical Twilight
Moon
Length Of Visible Light
Length of Day
Tomorrow will be .
, % of the Moon is Illuminated

Today's Extremes

State Highs State Lows

Community

WunderPhotos

Upload Photos

1,817,267 photos uploaded!

WunderBlogs® & News

Nearby

Air Quality

  Air Quality AQ Index Pollutant
Not available.

Snow Depth

Station Depth Elevation

Earthquake Activity

City Distance Mag. Time & Date
Minimum magnitude displayed is 2.5.

Coastal Water Temperatures

Locus Calor

Stations

Nearby Weather Stations

Station Location Temp Frigus Venti Frigus in quo Ros apparet Umor Ventus Precip. Elev Renovata Type